PWSweather.com
Personal Weather Stations
Station Observations
OZIERI
Punta Idda, OzieriIT

Punta IddaOzieriIT

Lat: 40.584142, Lon: 9.007657999999992

Elevation: 1483

Station Type: Lacrosse ws2350

Latest ConditionsUpdated 6:18:28 AM GMT+01:01 Friday, Jun 23, 2017
Currently Today's Max Today's Min Today's Average
Temperature 71.8°F22.1°C 71.8°F22.1°C 66.6°F19.2°C 68.1°F20.1°C
Dew Point 50.5°F10.3°C 51.4°F10.8°C 46.4°F8.0°C 49.3°F9.6°C
Winds 0.2 mph SE0.3 kmh SE 4.0 mph ESE6.4 kmh ESE - 1.8 mph 2.9 kmh
Wind Gusts -- 5.4 mph8.7 kmh - -
Humidity 47% 55% 47% 51%
Pressure 30.16 in1021.3 mb 30.16 in1021.3 mb 30.13 in1020.3 mb -
Hour Temp Dew Point Humidity Winds Wind Gusts Pressure Precip Precip Rate Daily Precip Total
06:18 AM 71.8°F22.1°C 50.5°F10.3°C 47% 0.2 mph SE0.3 kmh SE -- 30.16 in1021.3 mb 0.00 in0.0 mm 0.00 in0.0 mm 0.00 in0.0 mm
06:16 AM 71.2°F21.8°C 50.5°F10.3°C 48% 0.4 mph SE0.6 kmh SE -- 30.16 in1021.3 mb 0.00 in0.0 mm 0.00 in0.0 mm 0.00 in0.0 mm
06:14 AM 70.9°F21.6°C 50.2°F10.1°C 48% 0.9 mph SE1.4 kmh SE 1.1 mph1.8 kmh 30.16 in1021.3 mb 0.00 in0.0 mm 0.00 in0.0 mm 0.00 in0.0 mm
06:12 AM 70.7°F21.5°C 50.0°F10.0°C 48% 1.3 mph SE2.1 kmh SE 1.3 mph2.1 kmh 30.16 in1021.3 mb 0.00 in0.0 mm 0.00 in0.0 mm 0.00 in0.0 mm
06:10 AM 70.5°F21.4°C 49.8°F9.9°C 48% 1.8 mph SE2.9 kmh SE 2.2 mph3.5 kmh 30.16 in1021.3 mb 0.00 in0.0 mm 0.00 in0.0 mm 0.00 in0.0 mm
06:07 AM 70.2°F21.2°C 49.6°F9.8°C 48% 2.2 mph SE3.5 kmh SE 2.5 mph4.0 kmh 30.16 in1021.3 mb 0.00 in0.0 mm 0.00 in0.0 mm 0.00 in0.0 mm
06:05 AM 69.8°F21.0°C 49.8°F9.9°C 49% 2.5 mph SSE4.0 kmh SSE 3.4 mph5.5 kmh 30.16 in1021.3 mb 0.00 in0.0 mm 0.00 in0.0 mm 0.00 in0.0 mm
06:03 AM 69.6°F20.9°C 49.6°F9.8°C 49% 2.5 mph SE4.0 kmh SE 3.1 mph5.0 kmh 30.16 in1021.3 mb 0.00 in0.0 mm 0.00 in0.0 mm 0.00 in0.0 mm
06:01 AM 69.6°F20.9°C 49.6°F9.8°C 49% 2.5 mph SSE4.0 kmh SSE 4.0 mph6.4 kmh 30.16 in1021.3 mb 0.00 in0.0 mm 0.00 in0.0 mm 0.00 in0.0 mm
05:58 AM 69.1°F20.6°C 49.1°F9.5°C 49% 2.2 mph SSE3.5 kmh SSE 2.9 mph4.7 kmh 30.16 in1021.3 mb 0.00 in0.0 mm 0.00 in0.0 mm 0.00 in0.0 mm
05:56 AM 68.9°F20.5°C 48.9°F9.4°C 49% 2.2 mph SE3.5 kmh SE 3.4 mph5.5 kmh 30.16 in1021.3 mb 0.00 in0.0 mm 0.00 in0.0 mm 0.00 in0.0 mm
05:54 AM 68.7°F20.4°C 48.7°F9.3°C 49% 2.0 mph SE3.2 kmh SE 2.5 mph4.0 kmh 30.16 in1021.3 mb 0.00 in0.0 mm 0.00 in0.0 mm 0.00 in0.0 mm
05:51 AM 68.5°F20.3°C 48.6°F9.2°C 49% 2.5 mph SSE4.0 kmh SSE 2.9 mph4.7 kmh 30.16 in1021.3 mb 0.00 in0.0 mm 0.00 in0.0 mm 0.00 in0.0 mm
05:49 AM 68.5°F20.3°C 48.6°F9.2°C 49% 2.2 mph SE3.5 kmh SE 2.9 mph4.7 kmh 30.16 in1021.3 mb 0.00 in0.0 mm 0.00 in0.0 mm 0.00 in0.0 mm
05:47 AM 68.5°F20.3°C 48.6°F9.2°C 49% 2.2 mph ESE3.5 kmh ESE 3.1 mph5.0 kmh 30.15 in1021.0 mb 0.00 in0.0 mm 0.00 in0.0 mm 0.00 in0.0 mm
05:45 AM 68.5°F20.3°C 48.6°F9.2°C 49% 2.0 mph ESE3.2 kmh ESE 3.6 mph5.8 kmh 30.15 in1021.0 mb 0.00 in0.0 mm 0.00 in0.0 mm 0.00 in0.0 mm
05:43 AM 68.4°F20.2°C 48.9°F9.4°C 50% 1.6 mph ESE2.6 kmh ESE 2.5 mph4.0 kmh 30.15 in1021.0 mb 0.00 in0.0 mm 0.00 in0.0 mm 0.00 in0.0 mm
05:41 AM 68.4°F20.2°C 48.9°F9.4°C 50% 1.1 mph SSE1.8 kmh SSE 2.2 mph3.5 kmh 30.15 in1021.0 mb 0.00 in0.0 mm 0.00 in0.0 mm 0.00 in0.0 mm
05:38 AM 68.2°F20.1°C 48.9°F9.4°C 50% 0.9 mph SSE1.4 kmh SSE 1.3 mph2.1 kmh 30.15 in1021.0 mb 0.00 in0.0 mm 0.00 in0.0 mm 0.00 in0.0 mm
05:36 AM 67.8°F19.9°C 48.6°F9.2°C 50% 1.1 mph SSE1.8 kmh SSE 1.1 mph1.8 kmh 30.15 in1021.0 mb 0.00 in0.0 mm 0.00 in0.0 mm 0.00 in0.0 mm
05:34 AM 67.6°F19.8°C 48.9°F9.4°C 51% 1.8 mph SSE2.9 kmh SSE 2.0 mph3.2 kmh 30.15 in1021.0 mb 0.00 in0.0 mm 0.00 in0.0 mm 0.00 in0.0 mm
05:32 AM 67.3°F19.6°C 48.6°F9.2°C 51% 1.8 mph SSE2.9 kmh SSE 2.0 mph3.2 kmh 30.15 in1021.0 mb 0.00 in0.0 mm 0.00 in0.0 mm 0.00 in0.0 mm
05:30 AM 66.9°F19.4°C 48.2°F9.0°C 51% 1.8 mph SSE2.9 kmh SSE 2.0 mph3.2 kmh 30.15 in1021.0 mb 0.00 in0.0 mm 0.00 in0.0 mm 0.00 in0.0 mm
05:28 AM 66.7°F19.3°C 48.0°F8.9°C 51% 2.2 mph S3.5 kmh S 2.9 mph4.7 kmh 30.15 in1021.0 mb 0.00 in0.0 mm 0.00 in0.0 mm 0.00 in0.0 mm
05:26 AM 66.7°F19.3°C 48.0°F8.9°C 51% 2.5 mph SSE4.0 kmh SSE 2.9 mph4.7 kmh 30.15 in1021.0 mb 0.00 in0.0 mm 0.00 in0.0 mm 0.00 in0.0 mm
05:23 AM 66.7°F19.3°C 48.0°F8.9°C 51% 2.7 mph SE4.3 kmh SE 3.4 mph5.5 kmh 30.15 in1021.0 mb 0.00 in0.0 mm 0.00 in0.0 mm 0.00 in0.0 mm
05:21 AM 66.7°F19.3°C 48.0°F8.9°C 51% 2.7 mph S4.3 kmh S 3.8 mph6.1 kmh 30.15 in1021.0 mb 0.00 in0.0 mm 0.00 in0.0 mm 0.00 in0.0 mm
05:19 AM 66.9°F19.4°C 48.2°F9.0°C 51% 2.7 mph S4.3 kmh S 4.3 mph6.9 kmh 30.15 in1021.0 mb 0.00 in0.0 mm 0.00 in0.0 mm 0.00 in0.0 mm
05:17 AM 66.9°F19.4°C 48.2°F9.0°C 51% 2.5 mph SSE4.0 kmh SSE 3.1 mph5.0 kmh 30.15 in1021.0 mb 0.00 in0.0 mm 0.00 in0.0 mm 0.00 in0.0 mm
05:14 AM 67.1°F19.5°C 47.8°F8.8°C 50% 2.2 mph ESE3.5 kmh ESE 5.1 mph8.2 kmh 30.14 in1020.7 mb 0.00 in0.0 mm 0.00 in0.0 mm 0.00 in0.0 mm
05:12 AM 67.1°F19.5°C 47.8°F8.8°C 50% 1.6 mph SSE2.6 kmh SSE 2.5 mph4.0 kmh 30.14 in1020.7 mb 0.00 in0.0 mm 0.00 in0.0 mm 0.00 in0.0 mm
05:10 AM 67.1°F19.5°C 47.8°F8.8°C 50% 1.1 mph SE1.8 kmh SE 2.0 mph3.2 kmh 30.14 in1020.7 mb 0.00 in0.0 mm 0.00 in0.0 mm 0.00 in0.0 mm
05:08 AM 67.1°F19.5°C 47.8°F8.8°C 50% 0.4 mph SE0.6 kmh SE 0.9 mph1.4 kmh 30.14 in1020.7 mb 0.00 in0.0 mm 0.00 in0.0 mm 0.00 in0.0 mm
05:06 AM 67.1°F19.5°C 47.8°F8.8°C 50% 0.7 mph SSE1.1 kmh SSE -- 30.14 in1020.7 mb 0.00 in0.0 mm 0.00 in0.0 mm 0.00 in0.0 mm
05:03 AM 67.1°F19.5°C 47.3°F8.5°C 49% 1.3 mph SSE2.1 kmh SSE 1.8 mph2.9 kmh 30.14 in1020.7 mb 0.00 in0.0 mm 0.00 in0.0 mm 0.00 in0.0 mm
05:01 AM 66.9°F19.4°C 47.1°F8.4°C 49% 1.3 mph S2.1 kmh S 1.6 mph2.6 kmh 30.14 in1020.7 mb 0.00 in0.0 mm 0.00 in0.0 mm 0.00 in0.0 mm
04:59 AM 66.9°F19.4°C 47.1°F8.4°C 49% 1.6 mph SSE2.6 kmh SSE 1.8 mph2.9 kmh 30.14 in1020.7 mb 0.00 in0.0 mm 0.00 in0.0 mm 0.00 in0.0 mm
04:57 AM 67.3°F19.6°C 47.5°F8.6°C 49% 1.8 mph SSE2.9 kmh SSE 2.0 mph3.2 kmh 30.14 in1020.7 mb 0.00 in0.0 mm 0.00 in0.0 mm 0.00 in0.0 mm
04:54 AM 67.5°F19.7°C 47.1°F8.4°C 48% 1.8 mph ESE2.9 kmh ESE 2.5 mph4.0 kmh 30.14 in1020.7 mb 0.00 in0.0 mm 0.00 in0.0 mm 0.00 in0.0 mm
04:52 AM 67.6°F19.8°C 47.3°F8.5°C 48% 1.8 mph SE2.9 kmh SE 2.5 mph4.0 kmh 30.14 in1020.7 mb 0.00 in0.0 mm 0.00 in0.0 mm 0.00 in0.0 mm
04:50 AM 67.8°F19.9°C 46.9°F8.3°C 47% 1.6 mph SSE2.6 kmh SSE 2.7 mph4.3 kmh 30.14 in1020.7 mb 0.00 in0.0 mm 0.00 in0.0 mm 0.00 in0.0 mm
04:48 AM 67.8°F19.9°C 46.9°F8.3°C 47% 1.6 mph SE2.6 kmh SE 2.0 mph3.2 kmh 30.14 in1020.7 mb 0.00 in0.0 mm 0.00 in0.0 mm 0.00 in0.0 mm
04:46 AM 67.8°F19.9°C 46.9°F8.3°C 47% 1.8 mph SE2.9 kmh SE 1.8 mph2.9 kmh 30.14 in1020.7 mb 0.00 in0.0 mm 0.00 in0.0 mm 0.00 in0.0 mm
04:43 AM 67.8°F19.9°C 46.9°F8.3°C 47% 2.0 mph SE3.2 kmh SE 2.5 mph4.0 kmh 30.14 in1020.7 mb 0.00 in0.0 mm 0.00 in0.0 mm 0.00 in0.0 mm
04:41 AM 67.8°F19.9°C 46.9°F8.3°C 47% 2.0 mph SE3.2 kmh SE 2.2 mph3.5 kmh 30.14 in1020.7 mb 0.00 in0.0 mm 0.00 in0.0 mm 0.00 in0.0 mm
04:39 AM 67.6°F19.8°C 46.8°F8.2°C 47% 1.8 mph SSE2.9 kmh SSE 2.5 mph4.0 kmh 30.14 in1020.7 mb 0.00 in0.0 mm 0.00 in0.0 mm 0.00 in0.0 mm
04:37 AM 67.6°F19.8°C 46.8°F8.2°C 47% 2.2 mph ESE3.5 kmh ESE 2.2 mph3.5 kmh 30.14 in1020.7 mb 0.00 in0.0 mm 0.00 in0.0 mm 0.00 in0.0 mm
04:34 AM 67.5°F19.7°C 46.6°F8.1°C 47% 2.2 mph SSE3.5 kmh SSE 2.5 mph4.0 kmh 30.14 in1020.7 mb 0.00 in0.0 mm 0.00 in0.0 mm 0.00 in0.0 mm
04:32 AM 67.3°F19.6°C 46.4°F8.0°C 47% 2.5 mph SE4.0 kmh SE 2.7 mph4.3 kmh 30.14 in1020.7 mb 0.00 in0.0 mm 0.00 in0.0 mm 0.00 in0.0 mm
04:30 AM 67.3°F19.6°C 46.9°F8.3°C 48% 2.7 mph SE4.3 kmh SE 3.1 mph5.0 kmh 30.14 in1020.7 mb 0.00 in0.0 mm 0.00 in0.0 mm 0.00 in0.0 mm
04:28 AM 67.3°F19.6°C 46.9°F8.3°C 48% 2.7 mph SSE4.3 kmh SSE 3.1 mph5.0 kmh 30.14 in1020.7 mb 0.00 in0.0 mm 0.00 in0.0 mm 0.00 in0.0 mm
04:25 AM 67.3°F19.6°C 46.9°F8.3°C 48% 2.7 mph S4.3 kmh S 3.4 mph5.5 kmh 30.14 in1020.7 mb 0.00 in0.0 mm 0.00 in0.0 mm 0.00 in0.0 mm
04:23 AM 67.3°F19.6°C 46.9°F8.3°C 48% 2.9 mph SE4.7 kmh SE 3.4 mph5.5 kmh 30.14 in1020.7 mb 0.00 in0.0 mm 0.00 in0.0 mm 0.00 in0.0 mm
04:21 AM 67.3°F19.6°C 46.9°F8.3°C 48% 2.9 mph SE4.7 kmh SE 3.6 mph5.8 kmh 30.14 in1020.7 mb 0.00 in0.0 mm 0.00 in0.0 mm 0.00 in0.0 mm
04:19 AM 67.3°F19.6°C 46.9°F8.3°C 48% 2.9 mph ESE4.7 kmh ESE 3.8 mph6.1 kmh 30.14 in1020.7 mb 0.00 in0.0 mm 0.00 in0.0 mm 0.00 in0.0 mm
04:17 AM 67.1°F19.5°C 46.8°F8.2°C 48% 2.9 mph SSE4.7 kmh SSE 3.8 mph6.1 kmh 30.14 in1020.7 mb 0.00 in0.0 mm 0.00 in0.0 mm 0.00 in0.0 mm
04:14 AM 67.1°F19.5°C 47.3°F8.5°C 49% 2.9 mph SE4.7 kmh SE 3.4 mph5.5 kmh 30.14 in1020.7 mb 0.00 in0.0 mm 0.00 in0.0 mm 0.00 in0.0 mm
04:12 AM 67.1°F19.5°C 47.3°F8.5°C 49% 2.9 mph SE4.7 kmh SE 3.8 mph6.1 kmh 30.13 in1020.3 mb 0.00 in0.0 mm 0.00 in0.0 mm 0.00 in0.0 mm
04:10 AM 66.9°F19.4°C 47.1°F8.4°C 49% 3.1 mph SSE5.0 kmh SSE 4.3 mph6.9 kmh 30.13 in1020.3 mb 0.00 in0.0 mm 0.00 in0.0 mm 0.00 in0.0 mm
04:08 AM 66.7°F19.3°C 46.9°F8.3°C 49% 2.9 mph SE4.7 kmh SE 2.9 mph4.7 kmh 30.14 in1020.7 mb 0.00 in0.0 mm 0.00 in0.0 mm 0.00 in0.0 mm
04:05 AM 66.9°F19.4°C 47.1°F8.4°C 49% 3.4 mph SE5.5 kmh SE 4.3 mph6.9 kmh 30.14 in1020.7 mb 0.00 in0.0 mm 0.00 in0.0 mm 0.00 in0.0 mm
04:03 AM 66.9°F19.4°C 47.1°F8.4°C 49% 3.6 mph ESE5.8 kmh ESE 4.0 mph6.4 kmh 30.14 in1020.7 mb 0.00 in0.0 mm 0.00 in0.0 mm 0.00 in0.0 mm
04:01 AM 66.9°F19.4°C 47.1°F8.4°C 49% 3.4 mph SSE5.5 kmh SSE 4.0 mph6.4 kmh 30.13 in1020.3 mb 0.00 in0.0 mm 0.00 in0.0 mm 0.00 in0.0 mm
03:59 AM 66.9°F19.4°C 47.1°F8.4°C 49% 3.6 mph ESE5.8 kmh ESE 5.4 mph8.7 kmh 30.13 in1020.3 mb 0.00 in0.0 mm 0.00 in0.0 mm 0.00 in0.0 mm
03:57 AM 66.9°F19.4°C 47.1°F8.4°C 49% 2.9 mph SE4.7 kmh SE 4.7 mph7.6 kmh 30.13 in1020.3 mb 0.00 in0.0 mm 0.00 in0.0 mm 0.00 in0.0 mm
03:55 AM 66.9°F19.4°C 47.1°F8.4°C 49% 2.9 mph SSE4.7 kmh SSE 3.8 mph6.1 kmh 30.14 in1020.7 mb 0.00 in0.0 mm 0.00 in0.0 mm 0.00 in0.0 mm
03:52 AM 66.7°F19.3°C 46.9°F8.3°C 49% 2.9 mph S4.7 kmh S 4.0 mph6.4 kmh 30.14 in1020.7 mb 0.00 in0.0 mm 0.00 in0.0 mm 0.00 in0.0 mm
03:50 AM 66.7°F19.3°C 46.9°F8.3°C 49% 2.7 mph SSE4.3 kmh SSE 3.4 mph5.5 kmh 30.14 in1020.7 mb 0.00 in0.0 mm 0.00 in0.0 mm 0.00 in0.0 mm
03:48 AM 66.6°F19.2°C 47.3°F8.5°C 50% 2.5 mph SSE4.0 kmh SSE 2.9 mph4.7 kmh 30.14 in1020.7 mb 0.00 in0.0 mm 0.00 in0.0 mm 0.00 in0.0 mm
03:46 AM 66.6°F19.2°C 47.3°F8.5°C 50% 2.0 mph SE3.2 kmh SE 2.7 mph4.3 kmh 30.13 in1020.3 mb 0.00 in0.0 mm 0.00 in0.0 mm 0.00 in0.0 mm
03:44 AM 66.6°F19.2°C 47.3°F8.5°C 50% 1.8 mph SSE2.9 kmh SSE 3.6 mph5.8 kmh 30.13 in1020.3 mb 0.00 in0.0 mm 0.00 in0.0 mm 0.00 in0.0 mm
03:42 AM 66.7°F19.3°C 47.5°F8.6°C 50% 1.8 mph SE2.9 kmh SE 2.2 mph3.5 kmh 30.14 in1020.7 mb 0.00 in0.0 mm 0.00 in0.0 mm 0.00 in0.0 mm
03:40 AM 66.7°F19.3°C 48.0°F8.9°C 51% 1.8 mph SE2.9 kmh SE 2.5 mph4.0 kmh 30.14 in1020.7 mb 0.00 in0.0 mm 0.00 in0.0 mm 0.00 in0.0 mm
03:37 AM 66.9°F19.4°C 48.2°F9.0°C 51% 2.0 mph SE3.2 kmh SE 2.5 mph4.0 kmh 30.14 in1020.7 mb 0.00 in0.0 mm 0.00 in0.0 mm 0.00 in0.0 mm
03:35 AM 66.9°F19.4°C 48.2°F9.0°C 51% 2.2 mph SE3.5 kmh SE 3.4 mph5.5 kmh 30.14 in1020.7 mb 0.00 in0.0 mm 0.00 in0.0 mm 0.00 in0.0 mm
03:33 AM 67.3°F19.6°C 48.6°F9.2°C 51% 2.2 mph ESE3.5 kmh ESE 3.1 mph5.0 kmh 30.14 in1020.7 mb 0.00 in0.0 mm 0.00 in0.0 mm 0.00 in0.0 mm
03:31 AM 67.6°F19.8°C 48.9°F9.4°C 51% 2.2 mph ESE3.5 kmh ESE 4.0 mph6.4 kmh 30.14 in1020.7 mb 0.00 in0.0 mm 0.00 in0.0 mm 0.00 in0.0 mm
03:29 AM 67.6°F19.8°C 48.9°F9.4°C 51% 1.6 mph SE2.6 kmh SE 3.6 mph5.8 kmh 30.14 in1020.7 mb 0.00 in0.0 mm 0.00 in0.0 mm 0.00 in0.0 mm
03:26 AM 67.6°F19.8°C 48.9°F9.4°C 51% 1.1 mph SSE1.8 kmh SSE 1.3 mph2.1 kmh 30.14 in1020.7 mb 0.00 in0.0 mm 0.00 in0.0 mm 0.00 in0.0 mm
03:24 AM 67.6°F19.8°C 48.9°F9.4°C 51% 1.6 mph SSE2.6 kmh SSE 1.6 mph2.6 kmh 30.14 in1020.7 mb 0.00 in0.0 mm 0.00 in0.0 mm 0.00 in0.0 mm
03:22 AM 67.8°F19.9°C 49.1°F9.5°C 51% 1.8 mph SE2.9 kmh SE 3.6 mph5.8 kmh 30.14 in1020.7 mb 0.00 in0.0 mm 0.00 in0.0 mm 0.00 in0.0 mm
03:20 AM 67.8°F19.9°C 49.1°F9.5°C 51% 1.3 mph ESE2.1 kmh ESE 1.8 mph2.9 kmh 30.14 in1020.7 mb 0.00 in0.0 mm 0.00 in0.0 mm 0.00 in0.0 mm
03:17 AM 67.6°F19.8°C 48.9°F9.4°C 51% 0.7 mph SSE1.1 kmh SSE 1.6 mph2.6 kmh 30.14 in1020.7 mb 0.00 in0.0 mm 0.00 in0.0 mm 0.00 in0.0 mm
03:15 AM 67.6°F19.8°C 48.9°F9.4°C 51% 0.4 mph SSE0.6 kmh SSE -- 30.14 in1020.7 mb 0.00 in0.0 mm 0.00 in0.0 mm 0.00 in0.0 mm
03:13 AM 67.6°F19.8°C 48.9°F9.4°C 51% 0.7 mph SSE1.1 kmh SSE 1.3 mph2.1 kmh 30.14 in1020.7 mb 0.00 in0.0 mm 0.00 in0.0 mm 0.00 in0.0 mm
03:11 AM 67.5°F19.7°C 48.7°F9.3°C 51% 0.9 mph SE1.4 kmh SE 1.1 mph1.8 kmh 30.14 in1020.7 mb 0.00 in0.0 mm 0.00 in0.0 mm 0.00 in0.0 mm
03:09 AM 67.6°F19.8°C 48.9°F9.4°C 51% 0.9 mph SE1.4 kmh SE 1.6 mph2.6 kmh 30.14 in1020.7 mb 0.00 in0.0 mm 0.00 in0.0 mm 0.00 in0.0 mm
03:06 AM 67.6°F19.8°C 48.9°F9.4°C 51% 1.1 mph SE1.8 kmh SE -- 30.14 in1020.7 mb 0.00 in0.0 mm 0.00 in0.0 mm 0.00 in0.0 mm
03:04 AM 67.6°F19.8°C 48.9°F9.4°C 51% 2.0 mph SE3.2 kmh SE 2.5 mph4.0 kmh 30.14 in1020.7 mb 0.00 in0.0 mm 0.00 in0.0 mm 0.00 in0.0 mm
03:02 AM 67.5°F19.7°C 48.7°F9.3°C 51% 2.0 mph SE3.2 kmh SE 2.0 mph3.2 kmh 30.13 in1020.3 mb 0.00 in0.0 mm 0.00 in0.0 mm 0.00 in0.0 mm
03:00 AM 67.5°F19.7°C 48.7°F9.3°C 51% 2.2 mph SE3.5 kmh SE 2.7 mph4.3 kmh 30.13 in1020.3 mb 0.00 in0.0 mm 0.00 in0.0 mm 0.00 in0.0 mm
02:57 AM 67.5°F19.7°C 48.7°F9.3°C 51% 2.5 mph SE4.0 kmh SE 2.9 mph4.7 kmh 30.14 in1020.7 mb 0.00 in0.0 mm 0.00 in0.0 mm 0.00 in0.0 mm
02:55 AM 67.6°F19.8°C 48.9°F9.4°C 51% 2.9 mph SE4.7 kmh SE 3.8 mph6.1 kmh 30.14 in1020.7 mb 0.00 in0.0 mm 0.00 in0.0 mm 0.00 in0.0 mm
02:53 AM 67.8°F19.9°C 49.1°F9.5°C 51% 2.9 mph SE4.7 kmh SE 4.5 mph7.2 kmh 30.13 in1020.3 mb 0.00 in0.0 mm 0.00 in0.0 mm 0.00 in0.0 mm
02:51 AM 68.0°F20.0°C 49.3°F9.6°C 51% 2.7 mph SE4.3 kmh SE 3.8 mph6.1 kmh 30.13 in1020.3 mb 0.00 in0.0 mm 0.00 in0.0 mm 0.00 in0.0 mm
02:49 AM 68.4°F20.2°C 49.5°F9.7°C 51% 2.5 mph SE4.0 kmh SE 3.8 mph6.1 kmh 30.13 in1020.3 mb 0.00 in0.0 mm 0.00 in0.0 mm 0.00 in0.0 mm
02:46 AM 68.5°F20.3°C 49.6°F9.8°C 51% 2.0 mph SE3.2 kmh SE 2.9 mph4.7 kmh 30.14 in1020.7 mb 0.00 in0.0 mm 0.00 in0.0 mm 0.00 in0.0 mm
02:44 AM 68.5°F20.3°C 49.6°F9.8°C 51% 1.6 mph SSE2.6 kmh SSE 2.0 mph3.2 kmh 30.13 in1020.3 mb 0.00 in0.0 mm 0.00 in0.0 mm 0.00 in0.0 mm
02:42 AM 68.5°F20.3°C 50.2°F10.1°C 52% 1.3 mph SSE2.1 kmh SSE 2.0 mph3.2 kmh 30.13 in1020.3 mb 0.00 in0.0 mm 0.00 in0.0 mm 0.00 in0.0 mm
02:40 AM 68.4°F20.2°C 50.0°F10.0°C 52% 1.3 mph SSE2.1 kmh SSE 2.0 mph3.2 kmh 30.13 in1020.3 mb 0.00 in0.0 mm 0.00 in0.0 mm 0.00 in0.0 mm
02:37 AM 68.4°F20.2°C 50.0°F10.0°C 52% 1.3 mph SSE2.1 kmh SSE 1.3 mph2.1 kmh 30.13 in1020.3 mb 0.00 in0.0 mm 0.00 in0.0 mm 0.00 in0.0 mm
02:35 AM 68.4°F20.2°C 50.0°F10.0°C 52% 1.6 mph SSE2.6 kmh SSE 2.0 mph3.2 kmh 30.14 in1020.7 mb 0.00 in0.0 mm 0.00 in0.0 mm 0.00 in0.0 mm
02:33 AM 68.4°F20.2°C 50.0°F10.0°C 52% 1.3 mph SSE2.1 kmh SSE 1.3 mph2.1 kmh 30.13 in1020.3 mb 0.00 in0.0 mm 0.00 in0.0 mm 0.00 in0.0 mm
02:31 AM 68.4°F20.2°C 50.0°F10.0°C 52% 2.0 mph SSE3.2 kmh SSE 2.2 mph3.5 kmh 30.13 in1020.3 mb 0.00 in0.0 mm 0.00 in0.0 mm 0.00 in0.0 mm
02:29 AM 68.2°F20.1°C 49.8°F9.9°C 52% 1.8 mph SSE2.9 kmh SSE 2.5 mph4.0 kmh 30.14 in1020.7 mb 0.00 in0.0 mm 0.00 in0.0 mm 0.00 in0.0 mm
02:27 AM 68.2°F20.1°C 50.4°F10.2°C 53% 1.8 mph SSE2.9 kmh SSE 2.2 mph3.5 kmh 30.14 in1020.7 mb 0.00 in0.0 mm 0.00 in0.0 mm 0.00 in0.0 mm
02:25 AM 68.2°F20.1°C 50.4°F10.2°C 53% 1.8 mph S2.9 kmh S 2.0 mph3.2 kmh 30.13 in1020.3 mb 0.00 in0.0 mm 0.00 in0.0 mm 0.00 in0.0 mm
02:23 AM 68.2°F20.1°C 50.4°F10.2°C 53% 1.6 mph SSE2.6 kmh SSE 2.2 mph3.5 kmh 30.14 in1020.7 mb 0.00 in0.0 mm 0.00 in0.0 mm 0.00 in0.0 mm
02:20 AM 68.0°F20.0°C 50.2°F10.1°C 53% 1.3 mph SE2.1 kmh SE 2.0 mph3.2 kmh 30.14 in1020.7 mb 0.00 in0.0 mm 0.00 in0.0 mm 0.00 in0.0 mm
02:18 AM 67.8°F19.9°C 50.0°F10.0°C 53% 1.3 mph SSE2.1 kmh SSE 2.2 mph3.5 kmh 30.14 in1020.7 mb 0.00 in0.0 mm 0.00 in0.0 mm 0.00 in0.0 mm
02:16 AM 67.8°F19.9°C 50.0°F10.0°C 53% 1.6 mph S2.6 kmh S 1.8 mph2.9 kmh 30.14 in1020.7 mb 0.00 in0.0 mm 0.00 in0.0 mm 0.00 in0.0 mm
02:14 AM 67.8°F19.9°C 50.5°F10.3°C 54% 1.8 mph SSE2.9 kmh SSE 2.0 mph3.2 kmh 30.14 in1020.7 mb 0.00 in0.0 mm 0.00 in0.0 mm 0.00 in0.0 mm
02:11 AM 67.8°F19.9°C 50.5°F10.3°C 54% 1.6 mph SE2.6 kmh SE 2.7 mph4.3 kmh 30.14 in1020.7 mb 0.00 in0.0 mm 0.00 in0.0 mm 0.00 in0.0 mm
02:09 AM 68.2°F20.1°C 50.4°F10.2°C 53% 1.1 mph ESE1.8 kmh ESE 2.9 mph4.7 kmh 30.14 in1020.7 mb 0.00 in0.0 mm 0.00 in0.0 mm 0.00 in0.0 mm
02:07 AM 68.2°F20.1°C 50.4°F10.2°C 53% 0.4 mph ENE0.6 kmh ENE 1.1 mph1.8 kmh 30.14 in1020.7 mb 0.00 in0.0 mm 0.00 in0.0 mm 0.00 in0.0 mm
02:05 AM 68.4°F20.2°C 50.5°F10.3°C 53% 1.6 mph S2.6 kmh S -- 30.14 in1020.7 mb 0.00 in0.0 mm 0.00 in0.0 mm 0.00 in0.0 mm
01:59 AM 68.4°F20.2°C 51.1°F10.6°C 54% 1.6 mph SE2.6 kmh SE 2.0 mph3.2 kmh 30.13 in1020.3 mb 0.00 in0.0 mm 0.00 in0.0 mm 0.00 in0.0 mm
01:57 AM 68.2°F20.1°C 50.9°F10.5°C 54% 1.8 mph SSE2.9 kmh SSE 1.8 mph2.9 kmh 30.14 in1020.7 mb 0.00 in0.0 mm 0.00 in0.0 mm 0.00 in0.0 mm
01:54 AM 68.2°F20.1°C 50.9°F10.5°C 54% 2.2 mph SSE3.5 kmh SSE 2.7 mph4.3 kmh 30.14 in1020.7 mb 0.00 in0.0 mm 0.00 in0.0 mm 0.00 in0.0 mm
01:52 AM 67.8°F19.9°C 51.1°F10.6°C 55% 2.7 mph SSE4.3 kmh SSE 3.6 mph5.8 kmh 30.14 in1020.7 mb 0.00 in0.0 mm 0.00 in0.0 mm 0.00 in0.0 mm
01:50 AM 67.8°F19.9°C 51.1°F10.6°C 55% 2.7 mph ESE4.3 kmh ESE 3.6 mph5.8 kmh 30.14 in1020.7 mb 0.00 in0.0 mm 0.00 in0.0 mm 0.00 in0.0 mm
01:48 AM 67.6°F19.8°C 50.9°F10.5°C 55% 2.7 mph SE4.3 kmh SE 4.3 mph6.9 kmh 30.14 in1020.7 mb 0.00 in0.0 mm 0.00 in0.0 mm 0.00 in0.0 mm
01:45 AM 67.6°F19.8°C 50.9°F10.5°C 55% 2.7 mph SE4.3 kmh SE 2.9 mph4.7 kmh 30.14 in1020.7 mb 0.00 in0.0 mm 0.00 in0.0 mm 0.00 in0.0 mm
01:43 AM 67.5°F19.7°C 50.7°F10.4°C 55% 2.9 mph ESE4.7 kmh ESE 2.5 mph4.0 kmh 30.14 in1020.7 mb 0.00 in0.0 mm 0.00 in0.0 mm 0.00 in0.0 mm
01:41 AM 67.3°F19.6°C 50.5°F10.3°C 55% 3.4 mph E5.5 kmh E 5.1 mph8.2 kmh 30.14 in1020.7 mb 0.00 in0.0 mm 0.00 in0.0 mm 0.00 in0.0 mm
01:39 AM 67.3°F19.6°C 50.5°F10.3°C 55% 3.1 mph SSE5.0 kmh SSE 4.3 mph6.9 kmh 30.14 in1020.7 mb 0.00 in0.0 mm 0.00 in0.0 mm 0.00 in0.0 mm
01:36 AM 67.3°F19.6°C 50.5°F10.3°C 55% 3.4 mph SSE5.5 kmh SSE 4.7 mph7.6 kmh 30.15 in1021.0 mb 0.00 in0.0 mm 0.00 in0.0 mm 0.00 in0.0 mm
01:34 AM 67.3°F19.6°C 50.5°F10.3°C 55% 3.6 mph ESE5.8 kmh ESE 4.7 mph7.6 kmh 30.15 in1021.0 mb 0.00 in0.0 mm 0.00 in0.0 mm 0.00 in0.0 mm
01:32 AM 67.6°F19.8°C 50.9°F10.5°C 55% 3.8 mph SE6.1 kmh SE 5.1 mph8.2 kmh 30.14 in1020.7 mb 0.00 in0.0 mm 0.00 in0.0 mm 0.00 in0.0 mm
01:30 AM 67.8°F19.9°C 51.1°F10.6°C 55% 3.6 mph ESE5.8 kmh ESE 4.5 mph7.2 kmh 30.15 in1021.0 mb 0.00 in0.0 mm 0.00 in0.0 mm 0.00 in0.0 mm
01:27 AM 68.0°F20.0°C 50.7°F10.4°C 54% 4.0 mph ESE6.4 kmh ESE 5.4 mph8.7 kmh 30.15 in1021.0 mb 0.00 in0.0 mm 0.00 in0.0 mm 0.00 in0.0 mm
01:25 AM 68.2°F20.1°C 50.9°F10.5°C 54% 3.1 mph ESE5.0 kmh ESE 5.1 mph8.2 kmh 30.14 in1020.7 mb 0.00 in0.0 mm 0.00 in0.0 mm 0.00 in0.0 mm
01:23 AM 68.5°F20.3°C 51.3°F10.7°C 54% 2.2 mph SSE3.5 kmh SSE 2.7 mph4.3 kmh 30.15 in1021.0 mb 0.00 in0.0 mm 0.00 in0.0 mm 0.00 in0.0 mm
01:21 AM 68.7°F20.4°C 51.4°F10.8°C 54% 2.2 mph ESE3.5 kmh ESE 3.6 mph5.8 kmh 30.15 in1021.0 mb 0.00 in0.0 mm 0.00 in0.0 mm 0.00 in0.0 mm
01:19 AM 68.7°F20.4°C 50.9°F10.5°C 53% 2.0 mph SSE3.2 kmh SSE 2.9 mph4.7 kmh 30.14 in1020.7 mb 0.00 in0.0 mm 0.00 in0.0 mm 0.00 in0.0 mm
01:16 AM 68.7°F20.4°C 50.9°F10.5°C 53% 1.8 mph SSE2.9 kmh SSE 2.5 mph4.0 kmh 30.15 in1021.0 mb 0.00 in0.0 mm 0.00 in0.0 mm 0.00 in0.0 mm
01:14 AM 68.9°F20.5°C 51.1°F10.6°C 53% 1.3 mph ESE2.1 kmh ESE 3.4 mph5.5 kmh 30.14 in1020.7 mb 0.00 in0.0 mm 0.00 in0.0 mm 0.00 in0.0 mm
01:12 AM 69.1°F20.6°C 50.7°F10.4°C 52% 0.9 mph S1.4 kmh S 1.8 mph2.9 kmh 30.14 in1020.7 mb 0.00 in0.0 mm 0.00 in0.0 mm 0.00 in0.0 mm
01:10 AM 69.1°F20.6°C 50.7°F10.4°C 52% 0.9 mph ESE1.4 kmh ESE 1.1 mph1.8 kmh 30.14 in1020.7 mb 0.00 in0.0 mm 0.00 in0.0 mm 0.00 in0.0 mm
01:08 AM 69.1°F20.6°C 50.7°F10.4°C 52% 1.1 mph SSE1.8 kmh SSE 1.3 mph2.1 kmh 30.15 in1021.0 mb 0.00 in0.0 mm 0.00 in0.0 mm 0.00 in0.0 mm
01:06 AM 69.4°F20.8°C 51.1°F10.6°C 52% 1.6 mph SE2.6 kmh SE 3.6 mph5.8 kmh 30.14 in1020.7 mb 0.00 in0.0 mm 0.00 in0.0 mm 0.00 in0.0 mm
01:04 AM 69.6°F20.9°C 50.7°F10.4°C 51% 0.7 mph ESE1.1 kmh ESE 2.0 mph3.2 kmh 30.15 in1021.0 mb 0.00 in0.0 mm 0.00 in0.0 mm 0.00 in0.0 mm
01:01 AM 69.6°F20.9°C 50.7°F10.4°C 51% 0.4 mph S0.6 kmh S 0.9 mph1.4 kmh 30.14 in1020.7 mb 0.00 in0.0 mm 0.00 in0.0 mm 0.00 in0.0 mm
12:59 AM 69.3°F20.7°C 50.9°F10.5°C 52% 0.7 mph S1.1 kmh S 1.6 mph2.6 kmh 30.14 in1020.7 mb 0.00 in0.0 mm 0.00 in0.0 mm 0.00 in0.0 mm
12:57 AM 68.9°F20.5°C 50.5°F10.3°C 52% 0.7 mph SSE1.1 kmh SSE 1.3 mph2.1 kmh 30.15 in1021.0 mb 0.00 in0.0 mm 0.00 in0.0 mm 0.00 in0.0 mm
12:55 AM 68.7°F20.4°C 50.4°F10.2°C 52% 0.4 mph S0.6 kmh S 0.9 mph1.4 kmh 30.15 in1021.0 mb 0.00 in0.0 mm 0.00 in0.0 mm 0.00 in0.0 mm
12:52 AM 68.7°F20.4°C 50.9°F10.5°C 53% 0.9 mph S1.4 kmh S 1.3 mph2.1 kmh 30.15 in1021.0 mb 0.00 in0.0 mm 0.00 in0.0 mm 0.00 in0.0 mm
12:50 AM 68.9°F20.5°C 51.1°F10.6°C 53% 1.3 mph SSE2.1 kmh SSE 2.2 mph3.5 kmh 30.15 in1021.0 mb 0.00 in0.0 mm 0.00 in0.0 mm 0.00 in0.0 mm
12:48 AM 68.9°F20.5°C 51.1°F10.6°C 53% 1.8 mph SE2.9 kmh SE 2.5 mph4.0 kmh 30.14 in1020.7 mb 0.00 in0.0 mm 0.00 in0.0 mm 0.00 in0.0 mm
12:46 AM 69.1°F20.6°C 51.3°F10.7°C 53% 1.3 mph E2.1 kmh E 2.0 mph3.2 kmh 30.15 in1021.0 mb 0.00 in0.0 mm 0.00 in0.0 mm 0.00 in0.0 mm
12:44 AM 69.3°F20.7°C 50.9°F10.5°C 52% 1.6 mph SSE2.6 kmh SSE 2.7 mph4.3 kmh 30.15 in1021.0 mb 0.00 in0.0 mm 0.00 in0.0 mm 0.00 in0.0 mm
12:41 AM 69.6°F20.9°C 51.3°F10.7°C 52% 2.0 mph ESE3.2 kmh ESE 2.7 mph4.3 kmh 30.15 in1021.0 mb 0.00 in0.0 mm 0.00 in0.0 mm 0.00 in0.0 mm
12:39 AM 69.6°F20.9°C 51.3°F10.7°C 52% 1.6 mph SE2.6 kmh SE 3.4 mph5.5 kmh 30.15 in1021.0 mb 0.00 in0.0 mm 0.00 in0.0 mm 0.00 in0.0 mm
12:37 AM 69.6°F20.9°C 51.3°F10.7°C 52% 0.9 mph SSE1.4 kmh SSE 1.8 mph2.9 kmh 30.15 in1021.0 mb 0.00 in0.0 mm 0.00 in0.0 mm 0.00 in0.0 mm
12:35 AM 69.6°F20.9°C 51.3°F10.7°C 52% 1.3 mph S2.1 kmh S 2.5 mph4.0 kmh 30.15 in1021.0 mb 0.00 in0.0 mm 0.00 in0.0 mm 0.00 in0.0 mm
12:33 AM 69.6°F20.9°C 51.3°F10.7°C 52% 1.3 mph SE2.1 kmh SE 2.2 mph3.5 kmh 30.15 in1021.0 mb 0.00 in0.0 mm 0.00 in0.0 mm 0.00 in0.0 mm
12:30 AM 69.6°F20.9°C 51.3°F10.7°C 52% 1.3 mph SSE2.1 kmh SSE 2.5 mph4.0 kmh 30.15 in1021.0 mb 0.00 in0.0 mm 0.00 in0.0 mm 0.00 in0.0 mm
12:28 AM 69.4°F20.8°C 51.1°F10.6°C 52% 1.6 mph ESE2.6 kmh ESE 2.9 mph4.7 kmh 30.15 in1021.0 mb 0.00 in0.0 mm 0.00 in0.0 mm 0.00 in0.0 mm
12:26 AM 69.6°F20.9°C 51.3°F10.7°C 52% 1.3 mph ESE2.1 kmh ESE 2.2 mph3.5 kmh 30.15 in1021.0 mb 0.00 in0.0 mm 0.00 in0.0 mm 0.00 in0.0 mm
12:24 AM 69.6°F20.9°C 51.3°F10.7°C 52% 1.3 mph SE2.1 kmh SE 2.5 mph4.0 kmh 30.15 in1021.0 mb 0.00 in0.0 mm 0.00 in0.0 mm 0.00 in0.0 mm
12:22 AM 69.6°F20.9°C 51.3°F10.7°C 52% 1.1 mph SE1.8 kmh SE 2.2 mph3.5 kmh 30.15 in1021.0 mb 0.00 in0.0 mm 0.00 in0.0 mm 0.00 in0.0 mm
12:19 AM 69.6°F20.9°C 51.3°F10.7°C 52% 0.7 mph SSE1.1 kmh SSE 2.2 mph3.5 kmh 30.15 in1021.0 mb 0.00 in0.0 mm 0.00 in0.0 mm 0.00 in0.0 mm
12:17 AM 69.6°F20.9°C 51.3°F10.7°C 52% 0.4 mph SSW0.6 kmh SSW 1.1 mph1.8 kmh 30.15 in1021.0 mb 0.00 in0.0 mm 0.00 in0.0 mm 0.00 in0.0 mm
12:15 AM 69.6°F20.9°C 51.3°F10.7°C 52% 0.4 mph S0.6 kmh S 1.6 mph2.6 kmh 30.15 in1021.0 mb 0.00 in0.0 mm 0.00 in0.0 mm 0.00 in0.0 mm
12:12 AM 69.4°F20.8°C 51.1°F10.6°C 52% 0.4 mph S0.6 kmh S 1.6 mph2.6 kmh 30.15 in1021.0 mb 0.00 in0.0 mm 0.00 in0.0 mm 0.00 in0.0 mm
12:10 AM 69.4°F20.8°C 51.1°F10.6°C 52% 0.2 mph S0.3 kmh S -- 30.15 in1021.0 mb 0.00 in0.0 mm 0.00 in0.0 mm 0.00 in0.0 mm
12:08 AM 69.4°F20.8°C 51.1°F10.6°C 52% 0.2 mph SSE0.3 kmh SSE -- 30.15 in1021.0 mb 0.00 in0.0 mm 0.00 in0.0 mm 0.00 in0.0 mm
12:06 AM 69.4°F20.8°C 51.1°F10.6°C 52% 0.2 mph S0.3 kmh S -- 30.15 in1021.0 mb 0.00 in0.0 mm 0.00 in0.0 mm 0.00 in0.0 mm
12:04 AM 69.6°F20.9°C 51.3°F10.7°C 52% 0.4 mph S0.6 kmh S 0.9 mph1.4 kmh 30.15 in1021.0 mb 0.00 in0.0 mm 0.00 in0.0 mm 0.00 in0.0 mm
12:01 AM 69.6°F20.9°C 51.3°F10.7°C 52% 0.4 mph SE0.6 kmh SE 0.9 mph1.4 kmh 30.15 in1021.0 mb 0.00 in0.0 mm 0.00 in0.0 mm 0.00 in0.0 mm